sensor_id;sensor_type;location;lat;lon;timestamp;pressure;altitude;pressure_sealevel;temperature;humidity
54918;BME280;40818;50.562;7.454;2022-11-14T00:03:56;97657.91;;;5.78;91.39
54918;BME280;40818;50.562;7.454;2022-11-14T00:09:23;97646.94;;;5.75;91.10
54918;BME280;40818;50.562;7.454;2022-11-14T00:14:45;97646.16;;;5.73;91.22
54918;BME280;40818;50.562;7.454;2022-11-14T00:20:10;97634.72;;;5.78;91.25
54918;BME280;40818;50.562;7.454;2022-11-14T00:25:35;97634.84;;;5.94;90.68
54918;BME280;40818;50.562;7.454;2022-11-14T00:30:57;97633.44;;;5.70;91.62
54918;BME280;40818;50.562;7.454;2022-11-14T00:36:19;97630.94;;;5.68;92.19
54918;BME280;40818;50.562;7.454;2022-11-14T00:41:43;97616.06;;;5.56;92.68
54918;BME280;40818;50.562;7.454;2022-11-14T00:47:05;97620.03;;;5.44;93.85
54918;BME280;40818;50.562;7.454;2022-11-14T00:52:27;97621.66;;;5.27;95.64
54918;BME280;40818;50.562;7.454;2022-11-14T00:57:52;97609.94;;;5.39;95.83
54918;BME280;40818;50.562;7.454;2022-11-14T01:03:14;97604.41;;;5.29;97.16
54918;BME280;40818;50.562;7.454;2022-11-14T01:08:36;97591.88;;;5.22;97.30
54918;BME280;40818;50.562;7.454;2022-11-14T01:14:01;97584.44;;;5.16;98.05
54918;BME280;40818;50.562;7.454;2022-11-14T01:19:23;97578.25;;;5.01;99.69
54918;BME280;40818;50.562;7.454;2022-11-14T01:24:45;97582.97;;;4.91;100.00
54918;BME280;40818;50.562;7.454;2022-11-14T01:30:11;97570.88;;;4.93;100.00
54918;BME280;40818;50.562;7.454;2022-11-14T01:35:34;97561.00;;;4.84;100.00
54918;BME280;40818;50.562;7.454;2022-11-14T01:40:57;97561.91;;;4.83;100.00
54918;BME280;40818;50.562;7.454;2022-11-14T01:46:25;97556.47;;;4.70;100.00
54918;BME280;40818;50.562;7.454;2022-11-14T01:52:00;97548.75;;;4.70;100.00
54918;BME280;40818;50.562;7.454;2022-11-14T01:57:26;97542.47;;;4.56;100.00
54918;BME280;40818;50.562;7.454;2022-11-14T02:02:53;97527.00;;;4.58;100.00
54918;BME280;40818;50.562;7.454;2022-11-14T02:08:17;97521.50;;;4.47;100.00
54918;BME280;40818;50.562;7.454;2022-11-14T02:13:39;97517.03;;;4.31;100.00
54918;BME280;40818;50.562;7.454;2022-11-14T02:19:04;97519.53;;;4.33;100.00
54918;BME280;40818;50.562;7.454;2022-11-14T02:24:28;97506.16;;;4.24;100.00
54918;BME280;40818;50.562;7.454;2022-11-14T02:29:50;97508.94;;;4.20;100.00
54918;BME280;40818;50.562;7.454;2022-11-14T02:35:12;97502.91;;;4.21;100.00
54918;BME280;40818;50.562;7.454;2022-11-14T02:40:36;97502.09;;;4.20;100.00
54918;BME280;40818;50.562;7.454;2022-11-14T02:45:58;97495.81;;;4.07;100.00
54918;BME280;40818;50.562;7.454;2022-11-14T02:51:20;97476.00;;;4.09;100.00
54918;BME280;40818;50.562;7.454;2022-11-14T02:56:45;97485.25;;;4.13;100.00
54918;BME280;40818;50.562;7.454;2022-11-14T03:02:07;97483.91;;;4.04;100.00
54918;BME280;40818;50.562;7.454;2022-11-14T03:07:29;97488.63;;;3.95;100.00
54918;BME280;40818;50.562;7.454;2022-11-14T03:12:57;97493.19;;;3.88;100.00
54918;BME280;40818;50.562;7.454;2022-11-14T03:18:19;97492.59;;;3.81;100.00
54918;BME280;40818;50.562;7.454;2022-11-14T03:23:42;97492.06;;;3.73;100.00
54918;BME280;40818;50.562;7.454;2022-11-14T03:29:07;97501.84;;;3.65;100.00
54918;BME280;40818;50.562;7.454;2022-11-14T03:34:29;97502.91;;;3.59;100.00
54918;BME280;40818;50.562;7.454;2022-11-14T03:39:51;97507.72;;;3.46;100.00
54918;BME280;40818;50.562;7.454;2022-11-14T03:45:16;97500.97;;;3.23;100.00
54918;BME280;40818;50.562;7.454;2022-11-14T03:50:38;97505.66;;;3.12;100.00
54918;BME280;40818;50.562;7.454;2022-11-14T03:56:01;97489.03;;;3.00;100.00
54918;BME280;40818;50.562;7.454;2022-11-14T04:01:25;97489.25;;;2.94;100.00
54918;BME280;40818;50.562;7.454;2022-11-14T04:06:47;97485.16;;;2.89;100.00
54918;BME280;40818;50.562;7.454;2022-11-14T04:12:09;97482.06;;;2.80;100.00
54918;BME280;40818;50.562;7.454;2022-11-14T04:17:34;97465.16;;;2.76;100.00
54918;BME280;40818;50.562;7.454;2022-11-14T04:22:56;97462.69;;;2.72;100.00
54918;BME280;40818;50.562;7.454;2022-11-14T04:28:18;97464.97;;;2.58;100.00
54918;BME280;40818;50.562;7.454;2022-11-14T04:33:42;97461.59;;;2.56;100.00
54918;BME280;40818;50.562;7.454;2022-11-14T04:39:04;97455.59;;;2.57;100.00
54918;BME280;40818;50.562;7.454;2022-11-14T04:44:26;97449.97;;;2.47;100.00
54918;BME280;40818;50.562;7.454;2022-11-14T04:49:51;97448.31;;;2.46;100.00
54918;BME280;40818;50.562;7.454;2022-11-14T04:55:13;97447.59;;;2.43;100.00
54918;BME280;40818;50.562;7.454;2022-11-14T05:00:35;97451.44;;;2.31;100.00
54918;BME280;40818;50.562;7.454;2022-11-14T05:06:02;97443.16;;;2.24;100.00
54918;BME280;40818;50.562;7.454;2022-11-14T05:11:24;97445.94;;;2.18;100.00
54918;BME280;40818;50.562;7.454;2022-11-14T05:16:46;97435.00;;;2.13;100.00
54918;BME280;40818;50.562;7.454;2022-11-14T05:22:11;97431.78;;;2.08;100.00
54918;BME280;40818;50.562;7.454;2022-11-14T05:27:33;97431.78;;;2.08;100.00
54918;BME280;40818;50.562;7.454;2022-11-14T05:32:55;97435.81;;;2.15;100.00
54918;BME280;40818;50.562;7.454;2022-11-14T05:38:20;97427.88;;;2.21;100.00
54918;BME280;40818;50.562;7.454;2022-11-14T05:43:42;97423.88;;;2.37;100.00
54918;BME280;40818;50.562;7.454;2022-11-14T05:49:04;97413.28;;;2.47;100.00
54918;BME280;40818;50.562;7.454;2022-11-14T05:54:29;97420.50;;;2.59;100.00
54918;BME280;40818;50.562;7.454;2022-11-14T05:59:51;97413.78;;;2.79;100.00
54918;BME280;40818;50.562;7.454;2022-11-14T06:05:14;97409.34;;;2.82;100.00
54918;BME280;40818;50.562;7.454;2022-11-14T06:10:39;97414.53;;;2.81;100.00
54918;BME280;40818;50.562;7.454;2022-11-14T06:16:03;97407.78;;;2.78;100.00
54918;BME280;40818;50.562;7.454;2022-11-14T06:21:26;97394.81;;;2.83;100.00
54918;BME280;40818;50.562;7.454;2022-11-14T06:26:51;97391.41;;;2.82;100.00
54918;BME280;40818;50.562;7.454;2022-11-14T06:32:13;97398.13;;;2.85;100.00
54918;BME280;40818;50.562;7.454;2022-11-14T06:37:35;97387.75;;;2.88;100.00
54918;BME280;40818;50.562;7.454;2022-11-14T06:43:00;97382.47;;;2.93;100.00
54918;BME280;40818;50.562;7.454;2022-11-14T06:48:22;97375.34;;;2.99;100.00
54918;BME280;40818;50.562;7.454;2022-11-14T06:53:44;97374.44;;;3.00;100.00
54918;BME280;40818;50.562;7.454;2022-11-14T06:59:09;97390.69;;;3.01;100.00
54918;BME280;40818;50.562;7.454;2022-11-14T07:04:32;97387.25;;;3.00;100.00
54918;BME280;40818;50.562;7.454;2022-11-14T07:09:54;97385.41;;;3.04;100.00
54918;BME280;40818;50.562;7.454;2022-11-14T07:15:19;97397.34;;;3.05;100.00
54918;BME280;40818;50.562;7.454;2022-11-14T07:20:41;97401.50;;;3.07;100.00
54918;BME280;40818;50.562;7.454;2022-11-14T07:26:04;97392.97;;;3.07;100.00
54918;BME280;40818;50.562;7.454;2022-11-14T07:31:30;97397.22;;;3.08;100.00
54918;BME280;40818;50.562;7.454;2022-11-14T07:36:52;97396.28;;;3.11;100.00
54918;BME280;40818;50.562;7.454;2022-11-14T07:42:14;97391.97;;;3.11;100.00
54918;BME280;40818;50.562;7.454;2022-11-14T07:47:39;97393.63;;;3.12;100.00
54918;BME280;40818;50.562;7.454;2022-11-14T07:53:02;97383.44;;;3.11;100.00
54918;BME280;40818;50.562;7.454;2022-11-14T07:58:24;97375.84;;;3.07;100.00
54918;BME280;40818;50.562;7.454;2022-11-14T08:03:48;97377.47;;;3.10;100.00
54918;BME280;40818;50.562;7.454;2022-11-14T08:09:10;97379.34;;;3.06;100.00
54918;BME280;40818;50.562;7.454;2022-11-14T08:14:33;97386.00;;;3.11;100.00
54918;BME280;40818;50.562;7.454;2022-11-14T08:19:57;97387.03;;;3.06;100.00
54918;BME280;40818;50.562;7.454;2022-11-14T08:25:20;97389.53;;;3.08;100.00
54918;BME280;40818;50.562;7.454;2022-11-14T08:30:42;97394.88;;;3.02;100.00
54918;BME280;40818;50.562;7.454;2022-11-14T08:36:08;97393.88;;;3.06;100.00
54918;BME280;40818;50.562;7.454;2022-11-14T08:41:31;97390.28;;;3.10;100.00
54918;BME280;40818;50.562;7.454;2022-11-14T08:46:53;97378.19;;;3.14;100.00
54918;BME280;40818;50.562;7.454;2022-11-14T08:52:21;97383.31;;;3.14;100.00
54918;BME280;40818;50.562;7.454;2022-11-14T08:57:43;97378.88;;;3.17;100.00
54918;BME280;40818;50.562;7.454;2022-11-14T09:03:07;97391.53;;;3.22;100.00
54918;BME280;40818;50.562;7.454;2022-11-14T09:08:32;97395.94;;;3.18;100.00
54918;BME280;40818;50.562;7.454;2022-11-14T09:13:54;97385.81;;;3.15;100.00
54918;BME280;40818;50.562;7.454;2022-11-14T09:19:16;97377.91;;;3.20;100.00
54918;BME280;40818;50.562;7.454;2022-11-14T09:24:41;97393.06;;;3.26;100.00
54918;BME280;40818;50.562;7.454;2022-11-14T09:30:06;97390.25;;;3.32;100.00
54918;BME280;40818;50.562;7.454;2022-11-14T09:35:29;97384.81;;;3.40;100.00
54918;BME280;40818;50.562;7.454;2022-11-14T09:40:59;97386.91;;;3.51;100.00
54918;BME280;40818;50.562;7.454;2022-11-14T09:46:30;97391.78;;;3.57;100.00
54918;BME280;40818;50.562;7.454;2022-11-14T09:51:57;97397.41;;;3.65;100.00
54918;BME280;40818;50.562;7.454;2022-11-14T09:57:25;97398.81;;;3.72;100.00
54918;BME280;40818;50.562;7.454;2022-11-14T10:02:59;97411.72;;;3.71;100.00
54918;BME280;40818;50.562;7.454;2022-11-14T10:08:33;97402.59;;;3.84;100.00
54918;BME280;40818;50.562;7.454;2022-11-14T10:14:17;97403.72;;;3.79;100.00
54918;BME280;40818;50.562;7.454;2022-11-14T10:19:47;97399.03;;;3.87;100.00
54918;BME280;40818;50.562;7.454;2022-11-14T10:25:29;97400.88;;;3.85;100.00
54918;BME280;40818;50.562;7.454;2022-11-14T10:31:04;97399.03;;;3.87;100.00
54918;BME280;40818;50.562;7.454;2022-11-14T10:36:32;97391.72;;;3.98;100.00
54918;BME280;40818;50.562;7.454;2022-11-14T10:42:01;97383.38;;;3.93;100.00
54918;BME280;40818;50.562;7.454;2022-11-14T10:47:31;97391.84;;;3.95;100.00
54918;BME280;40818;50.562;7.454;2022-11-14T10:53:00;97390.81;;;3.99;100.00
54918;BME280;40818;50.562;7.454;2022-11-14T10:58:25;97373.13;;;3.93;100.00
54918;BME280;40818;50.562;7.454;2022-11-14T11:03:50;97371.88;;;4.02;100.00
54918;BME280;40818;50.562;7.454;2022-11-14T11:09:14;97365.47;;;3.91;100.00
54918;BME280;40818;50.562;7.454;2022-11-14T11:15:07;97356.75;;;3.96;100.00
54918;BME280;40818;50.562;7.454;2022-11-14T11:20:38;97330.44;;;4.09;100.00
54918;BME280;40818;50.562;7.454;2022-11-14T11:26:03;97311.16;;;4.37;100.00
54918;BME280;40818;50.562;7.454;2022-11-14T11:31:27;97313.50;;;4.42;100.00
54918;BME280;40818;50.562;7.454;2022-11-14T11:36:56;97320.72;;;4.53;100.00
54918;BME280;40818;50.562;7.454;2022-11-14T11:42:22;97330.09;;;4.54;100.00
54918;BME280;40818;50.562;7.454;2022-11-14T11:47:50;97330.22;;;4.51;100.00
54918;BME280;40818;50.562;7.454;2022-11-14T11:53:22;97319.16;;;4.68;100.00
54918;BME280;40818;50.562;7.454;2022-11-14T11:58:47;97318.69;;;4.77;100.00
54918;BME280;40818;50.562;7.454;2022-11-14T12:04:10;97303.34;;;4.93;100.00
54918;BME280;40818;50.562;7.454;2022-11-14T12:09:38;97287.97;;;5.09;100.00
54918;BME280;40818;50.562;7.454;2022-11-14T12:15:10;97279.56;;;5.23;100.00
54918;BME280;40818;50.562;7.454;2022-11-14T12:21:15;97272.88;;;5.36;100.00
54918;BME280;40818;50.562;7.454;2022-11-14T12:26:55;97271.81;;;5.40;100.00
54918;BME280;40818;50.562;7.454;2022-11-14T12:32:28;97257.88;;;5.44;100.00
54918;BME280;40818;50.562;7.454;2022-11-14T12:37:54;97258.44;;;5.50;100.00
54918;BME280;40818;50.562;7.454;2022-11-14T12:43:37;97250.84;;;5.64;100.00
54918;BME280;40818;50.562;7.454;2022-11-14T12:49:00;97263.97;;;5.75;100.00
54918;BME280;40818;50.562;7.454;2022-11-14T12:54:43;97265.72;;;5.75;100.00
54918;BME280;40818;50.562;7.454;2022-11-14T13:00:10;97259.81;;;5.73;100.00
54918;BME280;40818;50.562;7.454;2022-11-14T13:05:42;97258.06;;;5.89;100.00
54918;BME280;40818;50.562;7.454;2022-11-14T13:11:33;97246.88;;;5.90;100.00
54918;BME280;40818;50.562;7.454;2022-11-14T13:17:23;97247.88;;;5.88;100.00
54918;BME280;40818;50.562;7.454;2022-11-14T13:22:58;97251.91;;;5.76;100.00
54918;BME280;40818;50.562;7.454;2022-11-14T13:28:45;97249.59;;;5.71;100.00
54918;BME280;40818;50.562;7.454;2022-11-14T13:34:35;97244.19;;;5.60;100.00
54918;BME280;40818;50.562;7.454;2022-11-14T13:40:03;97232.38;;;5.56;100.00
54918;BME280;40818;50.562;7.454;2022-11-14T13:45:43;97230.41;;;5.61;100.00
54918;BME280;40818;50.562;7.454;2022-11-14T13:51:14;97221.91;;;5.59;100.00
54918;BME280;40818;50.562;7.454;2022-11-14T13:56:47;97225.66;;;5.53;100.00
54918;BME280;40818;50.562;7.454;2022-11-14T14:02:47;97217.84;;;5.55;100.00
54918;BME280;40818;50.562;7.454;2022-11-14T14:08:29;97208.38;;;5.55;100.00
54918;BME280;40818;50.562;7.454;2022-11-14T14:14:03;97219.50;;;5.56;100.00
54918;BME280;40818;50.562;7.454;2022-11-14T14:19:34;97218.44;;;5.60;100.00
54918;BME280;40818;50.562;7.454;2022-11-14T14:25:08;97210.88;;;5.57;100.00
54918;BME280;40818;50.562;7.454;2022-11-14T14:30:35;97211.53;;;5.60;100.00
54918;BME280;40818;50.562;7.454;2022-11-14T14:35:57;97222.81;;;5.58;100.00
54918;BME280;40818;50.562;7.454;2022-11-14T14:41:21;97206.47;;;5.59;100.00
54918;BME280;40818;50.562;7.454;2022-11-14T14:46:44;97204.06;;;5.56;100.00
54918;BME280;40818;50.562;7.454;2022-11-14T14:52:18;97202.22;;;5.58;100.00
54918;BME280;40818;50.562;7.454;2022-11-14T14:57:43;97198.25;;;5.52;100.00
54918;BME280;40818;50.562;7.454;2022-11-14T15:03:08;97188.44;;;5.43;100.00
54918;BME280;40818;50.562;7.454;2022-11-14T15:08:36;97183.94;;;5.46;100.00
54918;BME280;40818;50.562;7.454;2022-11-14T15:14:02;97179.66;;;5.47;100.00
54918;BME280;40818;50.562;7.454;2022-11-14T15:19:39;97170.91;;;5.50;100.00
54918;BME280;40818;50.562;7.454;2022-11-14T15:25:17;97168.84;;;5.40;100.00
54918;BME280;40818;50.562;7.454;2022-11-14T15:30:55;97172.25;;;5.41;100.00
54918;BME280;40818;50.562;7.454;2022-11-14T15:36:18;97173.16;;;5.40;100.00
54918;BME280;40818;50.562;7.454;2022-11-14T15:41:40;97161.84;;;5.42;100.00
54918;BME280;40818;50.562;7.454;2022-11-14T15:47:09;97159.06;;;5.47;100.00
54918;BME280;40818;50.562;7.454;2022-11-14T15:52:34;97156.06;;;5.55;100.00
54918;BME280;40818;50.562;7.454;2022-11-14T15:57:56;97156.81;;;5.57;100.00
54918;BME280;40818;50.562;7.454;2022-11-14T16:03:21;97157.53;;;5.59;100.00
54918;BME280;40818;50.562;7.454;2022-11-14T16:08:43;97160.72;;;5.64;100.00
54918;BME280;40818;50.562;7.454;2022-11-14T16:14:05;97160.34;;;5.70;100.00
54918;BME280;40818;50.562;7.454;2022-11-14T16:19:30;97159.69;;;5.82;100.00
54918;BME280;40818;50.562;7.454;2022-11-14T16:24:52;97168.41;;;5.96;100.00
54918;BME280;40818;50.562;7.454;2022-11-14T16:30:17;97166.06;;;5.91;100.00
54918;BME280;40818;50.562;7.454;2022-11-14T16:35:42;97170.41;;;5.91;100.00
54918;BME280;40818;50.562;7.454;2022-11-14T16:41:06;97171.16;;;5.93;100.00
54918;BME280;40818;50.562;7.454;2022-11-14T16:46:28;97176.47;;;5.90;100.00
54918;BME280;40818;50.562;7.454;2022-11-14T16:51:52;97181.06;;;6.01;100.00
54918;BME280;40818;50.562;7.454;2022-11-14T16:57:16;97192.13;;;6.03;100.00
54918;BME280;40818;50.562;7.454;2022-11-14T17:02:39;97194.03;;;5.99;100.00
54918;BME280;40818;50.562;7.454;2022-11-14T17:08:03;97199.91;;;6.01;100.00
54918;BME280;40818;50.562;7.454;2022-11-14T17:13:27;97199.31;;;5.96;100.00
54918;BME280;40818;50.562;7.454;2022-11-14T17:18:50;97212.69;;;5.87;100.00
54918;BME280;40818;50.562;7.454;2022-11-14T17:24:15;97214.69;;;5.81;100.00
54918;BME280;40818;50.562;7.454;2022-11-14T17:29:37;97212.47;;;5.75;100.00
54918;BME280;40818;50.562;7.454;2022-11-14T17:34:59;97217.53;;;5.61;100.00
54918;BME280;40818;50.562;7.454;2022-11-14T17:40:24;97218.00;;;5.52;100.00
54918;BME280;40818;50.562;7.454;2022-11-14T17:45:53;97215.00;;;5.43;100.00
54918;BME280;40818;50.562;7.454;2022-11-14T17:51:15;97210.69;;;5.28;100.00
54918;BME280;40818;50.562;7.454;2022-11-14T17:56:40;97212.34;;;5.29;100.00
54918;BME280;40818;50.562;7.454;2022-11-14T18:02:02;97214.75;;;5.32;100.00
54918;BME280;40818;50.562;7.454;2022-11-14T18:07:24;97210.50;;;5.31;100.00
54918;BME280;40818;50.562;7.454;2022-11-14T18:12:49;97217.31;;;5.32;100.00
54918;BME280;40818;50.562;7.454;2022-11-14T18:18:11;97225.44;;;5.24;100.00
54918;BME280;40818;50.562;7.454;2022-11-14T18:23:33;97228.94;;;5.23;100.00
54918;BME280;40818;50.562;7.454;2022-11-14T18:29:00;97231.56;;;5.22;100.00
54918;BME280;40818;50.562;7.454;2022-11-14T18:34:22;97231.56;;;5.22;100.00
54918;BME280;40818;50.562;7.454;2022-11-14T18:39:44;97221.44;;;5.19;100.00
54918;BME280;40818;50.562;7.454;2022-11-14T18:45:09;97233.00;;;5.27;100.00
54918;BME280;40818;50.562;7.454;2022-11-14T18:50:31;97227.09;;;5.25;100.00
54918;BME280;40818;50.562;7.454;2022-11-14T18:55:54;97234.44;;;5.33;100.00
54918;BME280;40818;50.562;7.454;2022-11-14T19:01:22;97225.13;;;5.30;100.00
54918;BME280;40818;50.562;7.454;2022-11-14T19:06:46;97242.91;;;5.35;100.00
54918;BME280;40818;50.562;7.454;2022-11-14T19:12:09;97229.69;;;5.41;100.00
54918;BME280;40818;50.562;7.454;2022-11-14T19:17:45;97229.13;;;5.52;100.00
54918;BME280;40818;50.562;7.454;2022-11-14T19:23:07;97231.31;;;5.60;100.00
54918;BME280;40818;50.562;7.454;2022-11-14T19:28:29;97237.63;;;5.70;100.00
54918;BME280;40818;50.562;7.454;2022-11-14T19:33:54;97234.72;;;5.76;100.00
54918;BME280;40818;50.562;7.454;2022-11-14T19:39:16;97217.88;;;5.71;100.00
54918;BME280;40818;50.562;7.454;2022-11-14T19:44:38;97220.34;;;5.72;100.00
54918;BME280;40818;50.562;7.454;2022-11-14T19:50:03;97228.66;;;5.77;100.00
54918;BME280;40818;50.562;7.454;2022-11-14T19:55:25;97227.66;;;5.80;100.00
54918;BME280;40818;50.562;7.454;2022-11-14T20:00:47;97224.00;;;5.84;100.00
54918;BME280;40818;50.562;7.454;2022-11-14T20:06:16;97228.91;;;5.89;100.00
54918;BME280;40818;50.562;7.454;2022-11-14T20:11:39;97238.16;;;5.93;100.00
54918;BME280;40818;50.562;7.454;2022-11-14T20:17:01;97231.00;;;5.98;100.00
54918;BME280;40818;50.562;7.454;2022-11-14T20:22:26;97234.91;;;6.05;100.00
54918;BME280;40818;50.562;7.454;2022-11-14T20:27:48;97233.09;;;6.07;100.00
54918;BME280;40818;50.562;7.454;2022-11-14T20:33:10;97252.03;;;6.06;100.00
54918;BME280;40818;50.562;7.454;2022-11-14T20:38:35;97251.84;;;6.09;100.00
54918;BME280;40818;50.562;7.454;2022-11-14T20:43:57;97255.53;;;6.21;100.00
54918;BME280;40818;50.562;7.454;2022-11-14T20:49:19;97248.38;;;6.26;100.00
54918;BME280;40818;50.562;7.454;2022-11-14T20:54:43;97245.44;;;6.32;100.00
54918;BME280;40818;50.562;7.454;2022-11-14T21:00:07;97234.63;;;6.42;100.00
54918;BME280;40818;50.562;7.454;2022-11-14T21:05:29;97234.06;;;6.51;100.00
54918;BME280;40818;50.562;7.454;2022-11-14T21:10:58;97233.75;;;6.57;100.00
54918;BME280;40818;50.562;7.454;2022-11-14T21:16:21;97224.72;;;6.64;100.00
54918;BME280;40818;50.562;7.454;2022-11-14T21:21:44;97234.03;;;6.67;100.00
54918;BME280;40818;50.562;7.454;2022-11-14T21:27:08;97228.69;;;6.70;100.00
54918;BME280;40818;50.562;7.454;2022-11-14T21:32:31;97235.16;;;6.77;100.00
54918;BME280;40818;50.562;7.454;2022-11-14T21:37:54;97218.41;;;6.84;100.00
54918;BME280;40818;50.562;7.454;2022-11-14T21:43:18;97218.63;;;6.96;100.00
54918;BME280;40818;50.562;7.454;2022-11-14T21:48:40;97223.03;;;7.08;100.00
54918;BME280;40818;50.562;7.454;2022-11-14T21:54:03;97217.16;;;7.21;100.00
54918;BME280;40818;50.562;7.454;2022-11-14T21:59:27;97223.59;;;7.28;100.00
54918;BME280;40818;50.562;7.454;2022-11-14T22:04:49;97220.09;;;7.29;100.00
54918;BME280;40818;50.562;7.454;2022-11-14T22:10:12;97221.38;;;7.36;100.00
54918;BME280;40818;50.562;7.454;2022-11-14T22:15:36;97224.72;;;7.38;100.00
54918;BME280;40818;50.562;7.454;2022-11-14T22:20:58;97219.16;;;7.44;100.00
54918;BME280;40818;50.562;7.454;2022-11-14T22:26:21;97222.59;;;7.45;100.00
54918;BME280;40818;50.562;7.454;2022-11-14T22:31:45;97229.50;;;7.44;100.00
54918;BME280;40818;50.562;7.454;2022-11-14T22:37:10;97229.34;;;7.47;100.00
54918;BME280;40818;50.562;7.454;2022-11-14T22:42:32;97241.16;;;7.51;100.00
54918;BME280;40818;50.562;7.454;2022-11-14T22:47:57;97231.25;;;7.58;100.00
54918;BME280;40818;50.562;7.454;2022-11-14T22:53:19;97237.69;;;7.65;100.00
54918;BME280;40818;50.562;7.454;2022-11-14T22:58:42;97237.63;;;7.67;100.00
54918;BME280;40818;50.562;7.454;2022-11-14T23:04:10;97234.84;;;7.70;100.00
54918;BME280;40818;50.562;7.454;2022-11-14T23:09:32;97231.16;;;7.74;100.00
54918;BME280;40818;50.562;7.454;2022-11-14T23:14:54;97220.81;;;7.60;100.00
54918;BME280;40818;50.562;7.454;2022-11-14T23:20:18;97225.41;;;7.69;100.00
54918;BME280;40818;50.562;7.454;2022-11-14T23:25:41;97231.75;;;7.78;100.00
54918;BME280;40818;50.562;7.454;2022-11-14T23:31:03;97226.47;;;7.94;100.00
54918;BME280;40818;50.562;7.454;2022-11-14T23:36:28;97230.78;;;8.08;100.00
54918;BME280;40818;50.562;7.454;2022-11-14T23:41:50;97230.09;;;8.18;100.00
54918;BME280;40818;50.562;7.454;2022-11-14T23:47:12;97217.31;;;8.30;100.00
54918;BME280;40818;50.562;7.454;2022-11-14T23:52:36;97229.56;;;8.41;100.00
54918;BME280;40818;50.562;7.454;2022-11-14T23:57:59;97216.16;;;8.48;100.00
